createdAt,value
2018-07-15T00:02:12.413Z,2.70
2018-07-15T00:04:41.248Z,2.50
2018-07-15T00:07:10.066Z,2.43
2018-07-15T00:09:38.928Z,2.93
2018-07-15T00:12:07.883Z,2.60
2018-07-15T00:14:36.713Z,2.40
2018-07-15T00:17:05.553Z,2.30
2018-07-15T00:19:34.695Z,2.50
2018-07-15T00:22:03.501Z,2.47
2018-07-15T00:24:32.321Z,2.43
2018-07-15T00:27:01.180Z,2.50
2018-07-15T00:29:30.040Z,2.63
2018-07-15T00:31:58.885Z,2.40
2018-07-15T00:34:27.715Z,2.70
2018-07-15T00:36:56.560Z,2.60
2018-07-15T00:39:25.410Z,2.30
2018-07-15T00:41:57.249Z,2.90
2018-07-15T00:44:26.248Z,3.07
2018-07-15T00:46:55.449Z,2.63
2018-07-15T00:49:24.276Z,2.70
2018-07-15T00:51:53.279Z,2.90
2018-07-15T00:54:22.127Z,2.50
2018-07-15T00:56:51.161Z,3.10
2018-07-15T00:59:19.910Z,3.20
2018-07-15T01:01:48.777Z,2.97
2018-07-15T01:04:17.636Z,3.33
2018-07-15T01:06:46.491Z,3.20
2018-07-15T01:09:15.315Z,3.30
2018-07-15T01:11:44.159Z,3.20
2018-07-15T01:14:12.995Z,3.27
2018-07-15T01:16:41.867Z,2.90
2018-07-15T01:19:10.947Z,3.10
2018-07-15T01:21:39.769Z,3.50
2018-07-15T01:24:08.648Z,3.10
2018-07-15T01:27:13.055Z,3.50
2018-07-15T01:29:41.915Z,3.20
2018-07-15T01:32:10.756Z,3.10
2018-07-15T01:34:39.589Z,3.70
2018-07-15T01:37:08.434Z,3.37
2018-07-15T01:39:37.304Z,3.60
2018-07-15T01:42:06.471Z,3.33
2018-07-15T01:44:35.313Z,3.40
2018-07-15T01:47:04.155Z,3.43
2018-07-15T01:49:33.014Z,3.30
2018-07-15T01:52:01.846Z,3.60
2018-07-15T01:54:30.694Z,3.47
2018-07-15T01:56:59.572Z,3.60
2018-07-15T01:59:28.408Z,3.80
2018-07-15T02:01:57.314Z,3.63
2018-07-15T02:04:26.188Z,3.10
2018-07-15T02:06:55.032Z,4.03
2018-07-15T02:09:23.899Z,4.00
2018-07-15T02:11:53.167Z,3.50
2018-07-15T02:14:22.047Z,3.63
2018-07-15T02:16:50.893Z,3.43
2018-07-15T02:19:19.757Z,3.47
2018-07-15T02:21:48.591Z,3.70
2018-07-15T02:24:17.497Z,3.40
2018-07-15T02:26:46.357Z,3.20
2018-07-15T02:29:15.246Z,3.67
2018-07-15T02:31:44.073Z,3.43
2018-07-15T02:34:12.945Z,3.50
2018-07-15T02:36:41.851Z,3.67
2018-07-15T02:39:11.172Z,3.70
2018-07-15T02:41:40.029Z,3.77
2018-07-15T02:44:08.889Z,3.40
2018-07-15T02:46:37.723Z,3.70
2018-07-15T02:49:06.537Z,3.47
2018-07-15T02:51:35.404Z,4.00
2018-07-15T02:54:04.231Z,3.97
2018-07-15T02:56:33.300Z,3.70
2018-07-15T02:59:02.142Z,3.87
2018-07-15T03:01:31.032Z,3.70
2018-07-15T03:03:59.876Z,4.03
2018-07-15T03:06:28.744Z,3.80
2018-07-15T03:08:57.565Z,4.20
2018-07-15T03:11:26.392Z,4.60
2018-07-15T03:13:55.218Z,4.10
2018-07-15T03:16:24.077Z,4.10
2018-07-15T03:18:53.044Z,4.20
2018-07-15T03:21:21.871Z,4.50
2018-07-15T03:23:50.767Z,5.03
2018-07-15T03:26:19.659Z,5.00
2018-07-15T03:28:48.493Z,4.60
2018-07-15T03:31:17.316Z,5.10
2018-07-15T03:33:46.182Z,5.03
2018-07-15T03:36:15.011Z,3.93
2018-07-15T03:38:43.921Z,5.00
2018-07-15T03:41:16.295Z,5.17
2018-07-15T03:43:45.155Z,4.70
2018-07-15T03:46:13.971Z,4.67
2018-07-15T03:48:42.805Z,5.10
2018-07-15T03:51:11.670Z,5.00
2018-07-15T03:53:40.511Z,4.67
2018-07-15T03:56:09.447Z,5.07
2018-07-15T03:58:38.283Z,5.70
2018-07-15T04:01:07.132Z,5.97
2018-07-15T04:03:35.979Z,5.50
2018-07-15T04:06:04.858Z,5.80
2018-07-15T04:08:33.735Z,7.00
2018-07-15T04:11:02.545Z,6.03
2018-07-15T04:13:31.450Z,5.67
2018-07-15T04:16:00.339Z,5.87
2018-07-15T04:18:29.175Z,5.50
2018-07-15T04:20:58.025Z,6.27
2018-07-15T04:23:28.163Z,6.00
2018-07-15T04:25:57.019Z,5.40
2018-07-15T04:28:25.877Z,5.67
2018-07-15T04:30:54.704Z,6.20
2018-07-15T04:33:23.610Z,6.00
2018-07-15T04:35:52.443Z,7.10
2018-07-15T04:38:21.280Z,7.10
2018-07-15T04:40:50.112Z,7.70
2018-07-15T04:43:18.951Z,6.70
2018-07-15T04:45:47.787Z,6.87
2018-07-15T04:48:16.646Z,5.80
2018-07-15T04:50:45.532Z,6.37
2018-07-15T04:53:14.405Z,6.53
2018-07-15T04:55:43.229Z,6.70
2018-07-15T04:58:12.092Z,6.37
2018-07-15T05:00:40.916Z,6.53
2018-07-15T05:03:09.791Z,6.67
2018-07-15T05:05:38.601Z,6.27
2018-07-15T05:08:10.314Z,6.67
2018-07-15T05:10:39.151Z,6.90
2018-07-15T05:13:08.007Z,7.50
2018-07-15T05:15:36.904Z,5.90
2018-07-15T05:18:05.785Z,5.63
2018-07-15T05:20:34.631Z,6.03
2018-07-15T05:23:03.485Z,5.97
2018-07-15T05:25:32.373Z,5.77
2018-07-15T05:28:01.221Z,6.23
2018-07-15T05:30:31.166Z,6.13
2018-07-15T05:33:00.029Z,6.13
2018-07-15T05:35:28.844Z,6.87
2018-07-15T05:37:57.780Z,6.17
2018-07-15T05:40:26.633Z,5.73
2018-07-15T05:42:55.490Z,5.43
2018-07-15T05:45:24.319Z,5.27
2018-07-15T05:47:53.152Z,5.40
2018-07-15T05:50:22.019Z,6.93
2018-07-15T05:52:50.878Z,6.47
2018-07-15T05:55:19.751Z,6.90
2018-07-15T05:57:48.604Z,6.27
2018-07-15T06:00:17.434Z,6.65
2018-07-15T06:02:46.645Z,6.17
2018-07-15T06:05:15.472Z,5.60
2018-07-15T06:07:44.326Z,5.43
2018-07-15T06:10:13.143Z,5.60
2018-07-15T06:12:41.993Z,5.23
2018-07-15T06:15:11.009Z,4.83
2018-07-15T06:17:39.829Z,5.50
2018-07-15T06:20:08.883Z,5.00
2018-07-15T06:22:37.732Z,5.07
2018-07-15T06:25:06.604Z,5.37
2018-07-15T06:27:35.427Z,4.87
2018-07-15T06:30:04.286Z,5.60
2018-07-15T06:32:33.113Z,5.60
2018-07-15T06:35:01.940Z,4.20
2018-07-15T06:37:32.347Z,4.05
2018-07-15T06:40:01.182Z,4.25
2018-07-15T06:42:30.160Z,5.05
2018-07-15T06:44:59.021Z,3.40
2018-07-15T06:47:27.878Z,3.87
2018-07-15T06:49:56.744Z,3.80
2018-07-15T06:52:25.534Z,3.40
2018-07-15T06:54:54.380Z,4.03
2018-07-15T06:57:23.228Z,3.45
2018-07-15T07:00:27.562Z,3.40
2018-07-15T07:02:56.413Z,3.62
2018-07-15T07:05:25.253Z,3.02
2018-07-15T07:07:54.093Z,3.00
2018-07-15T07:10:22.956Z,3.00
2018-07-15T07:12:51.797Z,3.20
2018-07-15T07:15:20.619Z,2.70
2018-07-15T07:17:49.479Z,2.90
2018-07-15T07:20:18.316Z,3.02
2018-07-15T07:22:48.459Z,2.50
2018-07-15T07:25:17.342Z,2.10
2018-07-15T07:27:46.207Z,2.20
2018-07-15T07:30:15.048Z,1.80
2018-07-15T07:32:43.893Z,2.22
2018-07-15T07:35:12.709Z,2.27
2018-07-15T07:37:41.555Z,2.40
2018-07-15T07:40:10.421Z,2.33
2018-07-15T07:42:39.275Z,2.27
2018-07-15T07:45:08.154Z,2.80
2018-07-15T07:47:37.007Z,2.55
2018-07-15T07:50:05.906Z,2.27
2018-07-15T07:52:34.743Z,1.82
2018-07-15T07:55:03.621Z,2.00
2018-07-15T07:57:32.744Z,1.95
2018-07-15T08:00:01.596Z,1.75
2018-07-15T08:02:30.486Z,1.70
2018-07-15T08:04:59.317Z,1.40
2018-07-15T08:07:28.215Z,1.60
2018-07-15T08:09:57.166Z,1.52
2018-07-15T08:12:26.068Z,1.60
2018-07-15T08:14:54.842Z,1.42
2018-07-15T08:17:23.687Z,1.60
2018-07-15T08:19:52.517Z,1.40
2018-07-15T08:22:21.357Z,1.70
2018-07-15T08:24:50.184Z,1.62
2018-07-15T08:27:19.025Z,1.50
2018-07-15T08:30:27.638Z,1.80
2018-07-15T08:32:56.512Z,1.80
2018-07-15T08:35:25.516Z,1.80
2018-07-15T08:37:54.389Z,1.80
2018-07-15T08:40:23.193Z,1.95
2018-07-15T08:42:52.036Z,1.90
2018-07-15T08:45:20.873Z,1.60
2018-07-15T08:47:49.713Z,1.95
2018-07-15T08:50:18.619Z,2.00
2018-07-15T08:52:50.578Z,1.70
2018-07-15T08:55:19.472Z,1.87
2018-07-15T08:57:48.293Z,1.80
2018-07-15T09:00:17.160Z,2.00
2018-07-15T09:02:45.990Z,2.05
2018-07-15T09:05:14.841Z,1.90
2018-07-15T09:07:43.699Z,2.00
2018-07-15T09:10:12.523Z,1.80
2018-07-15T09:12:41.437Z,1.60
2018-07-15T09:15:10.272Z,1.70
2018-07-15T09:17:39.084Z,1.70
2018-07-15T09:20:07.898Z,1.80
2018-07-15T09:22:36.714Z,1.80
2018-07-15T09:25:05.593Z,1.72
2018-07-15T09:27:34.460Z,1.80
2018-07-15T09:30:03.307Z,1.65
2018-07-15T09:32:32.125Z,1.70
2018-07-15T09:35:00.943Z,1.70
2018-07-15T09:37:33.175Z,1.67
2018-07-15T09:40:02.017Z,1.82
2018-07-15T09:42:30.854Z,1.90
2018-07-15T09:44:59.694Z,1.90
2018-07-15T09:47:28.534Z,1.60
2018-07-15T09:49:57.360Z,1.80
2018-07-15T09:52:26.158Z,1.90
2018-07-15T09:54:55.014Z,1.90
2018-07-15T09:57:23.884Z,1.70
2018-07-15T09:59:52.701Z,1.67
2018-07-15T10:02:21.559Z,1.60
2018-07-15T10:04:50.605Z,1.67
2018-07-15T10:07:19.455Z,1.85
2018-07-15T10:09:48.276Z,1.90
2018-07-15T10:12:17.104Z,1.70
2018-07-15T10:14:45.952Z,1.65
2018-07-15T10:17:14.774Z,2.00
2018-07-15T10:19:43.627Z,2.00
2018-07-15T10:22:21.110Z,1.80
2018-07-15T10:24:49.939Z,1.62
2018-07-15T10:27:18.807Z,1.80
2018-07-15T10:29:47.642Z,1.70
2018-07-15T10:32:16.507Z,1.70
2018-07-15T10:34:45.450Z,1.70
2018-07-15T10:37:14.273Z,1.55
2018-07-15T10:39:43.128Z,1.85
2018-07-15T10:42:11.977Z,1.80
2018-07-15T10:44:41.002Z,1.62
2018-07-15T10:47:09.790Z,1.80
2018-07-15T10:49:38.625Z,1.77
2018-07-15T10:52:07.498Z,1.90
2018-07-15T10:54:36.355Z,1.70
2018-07-15T10:57:05.202Z,1.65
2018-07-15T10:59:34.023Z,1.70
2018-07-15T11:02:02.895Z,1.95
2018-07-15T11:04:31.733Z,1.85
2018-07-15T11:07:36.158Z,1.70
2018-07-15T11:10:05.098Z,1.70
2018-07-15T11:12:36.736Z,1.55
2018-07-15T11:15:05.605Z,1.65
2018-07-15T11:17:34.455Z,1.60
2018-07-15T11:20:03.300Z,1.60
2018-07-15T11:22:32.166Z,2.20
2018-07-15T11:25:00.954Z,1.80
2018-07-15T11:27:29.836Z,1.90
2018-07-15T11:29:58.740Z,2.00
2018-07-15T11:32:27.567Z,1.90
2018-07-15T11:34:56.423Z,1.85
2018-07-15T11:37:25.255Z,1.85
2018-07-15T11:39:54.115Z,1.60
2018-07-15T11:42:22.942Z,1.65
2018-07-15T11:44:51.795Z,1.77
2018-07-15T11:47:20.616Z,1.50
2018-07-15T11:49:49.500Z,1.60
2018-07-15T11:52:21.242Z,1.50
2018-07-15T11:54:50.171Z,1.72
2018-07-15T11:57:18.994Z,1.65
2018-07-15T11:59:47.825Z,1.62
2018-07-15T12:02:16.672Z,1.95
2018-07-15T12:04:45.590Z,1.70
2018-07-15T12:07:14.402Z,1.70
2018-07-15T12:09:43.250Z,1.62
2018-07-15T12:12:12.083Z,1.65
2018-07-15T12:14:42.192Z,1.70
2018-07-15T12:17:11.052Z,1.77
2018-07-15T12:19:39.888Z,1.80
2018-07-15T12:22:08.723Z,1.80
2018-07-15T12:24:37.572Z,1.92
2018-07-15T12:27:06.433Z,2.00
2018-07-15T12:29:35.268Z,1.80
2018-07-15T12:32:04.088Z,1.77
2018-07-15T12:34:32.921Z,1.92
2018-07-15T12:37:02.978Z,2.05
2018-07-15T12:39:31.875Z,2.00
2018-07-15T12:42:00.691Z,2.00
2018-07-15T12:44:29.542Z,1.75
2018-07-15T12:46:58.371Z,1.70
2018-07-15T12:49:27.191Z,1.70
2018-07-15T12:51:56.052Z,1.60
2018-07-15T12:54:24.871Z,1.80
2018-07-15T12:56:53.722Z,1.80
2018-07-15T12:59:22.611Z,1.80
2018-07-15T13:01:51.422Z,1.82
2018-07-15T13:04:20.281Z,1.77
2018-07-15T13:06:49.122Z,1.90
2018-07-15T13:09:17.969Z,1.65
2018-07-15T13:11:46.811Z,1.60
2018-07-15T13:14:15.662Z,1.52
2018-07-15T13:16:44.479Z,1.80
2018-07-15T13:19:13.300Z,1.70
2018-07-15T13:21:42.236Z,1.80
2018-07-15T13:24:11.140Z,1.70
2018-07-15T13:26:39.993Z,1.50
2018-07-15T13:29:08.833Z,1.50
2018-07-15T13:31:37.687Z,1.50
2018-07-15T13:34:06.535Z,1.80
2018-07-15T13:36:35.356Z,1.62
2018-07-15T13:39:04.919Z,1.60
2018-07-15T13:41:33.845Z,1.52
2018-07-15T13:44:11.336Z,1.60
2018-07-15T13:46:40.171Z,1.70
2018-07-15T13:49:09.006Z,1.60
2018-07-15T13:51:37.855Z,1.42
2018-07-15T13:54:06.703Z,1.57
2018-07-15T13:56:35.553Z,1.70
2018-07-15T13:59:04.368Z,1.57
2018-07-15T14:01:33.189Z,1.50
2018-07-15T14:04:02.080Z,1.40
2018-07-15T14:06:30.907Z,1.70
2018-07-15T14:08:59.755Z,1.55
2018-07-15T14:11:28.621Z,1.75
2018-07-15T14:13:57.464Z,1.60
2018-07-15T14:16:26.301Z,1.50
2018-07-15T14:18:55.130Z,1.72
2018-07-15T14:21:23.983Z,1.50
2018-07-15T14:23:52.831Z,1.47
2018-07-15T14:26:21.823Z,1.80
2018-07-15T14:28:50.707Z,1.40
2018-07-15T14:31:19.543Z,1.55
2018-07-15T14:33:48.373Z,1.60
2018-07-15T14:36:17.183Z,1.60
2018-07-15T14:38:46.024Z,1.50
2018-07-15T14:41:14.844Z,1.50
2018-07-15T14:43:43.709Z,1.40
2018-07-15T14:46:12.543Z,1.77
2018-07-15T14:48:41.534Z,1.65
2018-07-15T14:51:10.371Z,1.60
2018-07-15T14:53:39.198Z,1.40
2018-07-15T14:56:08.139Z,1.75
2018-07-15T14:58:36.864Z,1.40
2018-07-15T15:01:05.695Z,1.55
2018-07-15T15:03:34.513Z,1.50
2018-07-15T15:06:03.371Z,1.87
2018-07-15T15:08:32.198Z,1.40
2018-07-15T15:11:02.351Z,1.40
2018-07-15T15:13:31.201Z,1.37
2018-07-15T15:16:00.026Z,1.70
2018-07-15T15:18:28.870Z,1.40
2018-07-15T15:20:57.808Z,1.50
2018-07-15T15:23:26.636Z,1.40
2018-07-15T15:25:55.463Z,1.50
2018-07-15T15:28:24.285Z,1.35
2018-07-15T15:30:53.128Z,1.60
2018-07-15T15:33:22.106Z,1.50
2018-07-15T15:35:51.167Z,1.60
2018-07-15T15:38:20.004Z,1.62
2018-07-15T15:40:48.854Z,1.40
2018-07-15T15:43:17.690Z,1.60
2018-07-15T15:45:46.584Z,1.37
2018-07-15T15:48:15.434Z,1.75
2018-07-15T15:50:44.232Z,1.62
2018-07-15T15:53:13.084Z,1.70
2018-07-15T15:59:32.552Z,1.47
2018-07-15T16:02:01.398Z,1.70
2018-07-15T16:04:30.315Z,1.50
2018-07-15T16:06:59.154Z,1.50
2018-07-15T16:09:27.981Z,1.40
2018-07-15T16:11:56.806Z,1.70
2018-07-15T16:14:25.659Z,1.70
2018-07-15T16:16:54.557Z,1.60
2018-07-15T16:19:23.388Z,1.50
2018-07-15T16:21:52.238Z,1.62
2018-07-15T16:24:21.046Z,1.60
2018-07-15T16:26:49.915Z,1.50
2018-07-15T16:29:18.726Z,1.35
2018-07-15T16:31:47.552Z,1.70
2018-07-15T16:34:16.397Z,1.52
2018-07-15T16:36:45.230Z,1.30
2018-07-15T16:39:14.074Z,1.30
2018-07-15T16:41:50.008Z,1.42
2018-07-15T16:44:18.835Z,1.60
2018-07-15T16:46:47.736Z,1.40
2018-07-15T16:49:16.544Z,1.40
2018-07-15T16:51:45.372Z,1.47
2018-07-15T16:54:14.231Z,1.80
2018-07-15T16:56:43.039Z,1.42
2018-07-15T16:59:11.900Z,1.50
2018-07-15T17:01:40.764Z,1.45
2018-07-15T17:04:09.617Z,1.50
2018-07-15T17:06:38.445Z,1.37
2018-07-15T17:09:07.291Z,1.30
2018-07-15T17:11:36.391Z,1.52
2018-07-15T17:14:05.218Z,1.35
2018-07-15T17:16:34.037Z,1.15
2018-07-15T17:19:02.891Z,1.55
2018-07-15T17:21:31.727Z,1.30
2018-07-15T17:24:00.561Z,1.50
2018-07-15T17:26:29.392Z,1.40
2018-07-15T17:28:58.186Z,1.50
2018-07-15T17:31:27.033Z,1.40
2018-07-15T17:33:55.848Z,1.42
2018-07-15T17:36:24.672Z,1.30
2018-07-15T17:38:59.688Z,1.57
2018-07-15T17:41:28.519Z,1.30
2018-07-15T17:43:57.321Z,1.40
2018-07-15T17:46:26.125Z,1.40
2018-07-15T17:48:54.968Z,1.47
2018-07-15T17:51:23.834Z,1.20
2018-07-15T17:53:52.641Z,1.42
2018-07-15T17:56:21.460Z,1.40
2018-07-15T17:58:50.414Z,1.40
2018-07-15T18:01:19.142Z,1.40
2018-07-15T18:03:48.068Z,1.40
2018-07-15T18:06:17.105Z,1.40
2018-07-15T18:08:45.994Z,1.50
2018-07-15T18:11:14.817Z,1.42
2018-07-15T18:13:43.703Z,1.30
2018-07-15T18:16:12.543Z,1.30
2018-07-15T18:18:41.375Z,1.40
2018-07-15T18:21:10.218Z,1.30
2018-07-15T18:23:39.122Z,1.47
2018-07-15T18:26:07.987Z,1.57
2018-07-15T18:28:36.823Z,1.37
2018-07-15T18:31:05.748Z,1.35
2018-07-15T18:33:34.592Z,1.60
2018-07-15T18:36:03.516Z,1.80
2018-07-15T18:38:32.364Z,1.50
2018-07-15T18:41:01.225Z,1.40
2018-07-15T18:43:30.141Z,1.40
2018-07-15T18:46:06.037Z,1.47
2018-07-15T18:48:34.883Z,1.47
2018-07-15T18:51:03.777Z,1.45
2018-07-15T18:53:32.648Z,1.55
2018-07-15T18:56:01.417Z,1.47
2018-07-15T18:58:30.249Z,1.37
2018-07-15T19:00:59.074Z,1.50
2018-07-15T19:03:27.910Z,1.40
2018-07-15T19:05:56.768Z,1.42
2018-07-15T19:09:24.113Z,1.60
2018-07-15T19:11:52.961Z,1.50
2018-07-15T19:14:21.847Z,1.60
2018-07-15T19:16:50.710Z,1.50
2018-07-15T19:19:19.590Z,1.52
2018-07-15T19:21:48.410Z,1.40
2018-07-15T19:24:17.310Z,1.30
2018-07-15T19:26:46.173Z,1.80
2018-07-15T19:29:15.004Z,1.82
2018-07-15T19:32:41.370Z,1.50
2018-07-15T19:35:10.227Z,1.40
2018-07-15T19:37:39.083Z,1.50
2018-07-15T19:40:07.943Z,1.50
2018-07-15T19:42:36.770Z,1.50
2018-07-15T19:45:05.762Z,1.37
2018-07-15T19:47:34.609Z,1.55
2018-07-15T19:50:03.485Z,1.60
2018-07-15T19:52:32.387Z,1.50
2018-07-15T19:55:04.494Z,1.50
2018-07-15T19:57:33.324Z,1.50
2018-07-15T20:00:02.181Z,1.70
2018-07-15T20:02:31.030Z,1.85
2018-07-15T20:04:59.906Z,1.50
2018-07-15T20:07:28.721Z,1.60
2018-07-15T20:09:57.563Z,1.60
2018-07-15T20:12:26.478Z,1.80
2018-07-15T20:14:55.245Z,1.87
2018-07-15T20:17:24.061Z,1.80
2018-07-15T20:19:52.973Z,1.90
2018-07-15T20:22:21.746Z,1.80
2018-07-15T20:24:50.573Z,1.90
2018-07-15T20:27:19.406Z,1.50
2018-07-15T20:29:48.242Z,2.00
2018-07-15T20:32:17.085Z,1.80
2018-07-15T20:34:45.906Z,1.63
2018-07-15T20:37:14.837Z,1.87
2018-07-15T20:40:44.609Z,1.80
2018-07-15T20:43:13.463Z,1.90
2018-07-15T20:45:42.294Z,1.90
2018-07-15T20:48:11.146Z,1.63
2018-07-15T20:50:39.975Z,1.73
2018-07-15T20:53:08.836Z,1.90
2018-07-15T20:55:37.673Z,2.07
2018-07-15T20:58:06.515Z,1.70
2018-07-15T21:00:35.396Z,1.87
2018-07-15T21:03:04.304Z,1.97
2018-07-15T21:05:33.144Z,2.08
2018-07-15T21:08:01.968Z,2.30
2018-07-15T21:10:30.796Z,1.70
2018-07-15T21:12:59.626Z,2.40
2018-07-15T21:15:28.464Z,1.80
2018-07-15T21:17:57.268Z,2.12
2018-07-15T21:20:26.214Z,2.10
2018-07-15T21:22:55.102Z,2.00
2018-07-15T21:25:27.219Z,2.10
2018-07-15T21:27:56.011Z,2.20
2018-07-15T21:30:24.846Z,2.07
2018-07-15T21:32:53.724Z,2.20
2018-07-15T21:35:22.555Z,1.90
2018-07-15T21:37:51.429Z,2.47
2018-07-15T21:40:20.225Z,2.13
2018-07-15T21:42:49.080Z,2.13
2018-07-15T21:45:17.939Z,2.00
2018-07-15T21:47:49.673Z,1.97
2018-07-15T21:50:18.536Z,2.30
2018-07-15T21:52:47.362Z,2.23
2018-07-15T21:55:16.397Z,2.27
2018-07-15T21:57:45.216Z,2.33
2018-07-15T22:00:14.110Z,2.20
2018-07-15T22:02:42.945Z,2.33
2018-07-15T22:05:11.825Z,2.20
2018-07-15T22:08:17.382Z,2.00
2018-07-15T22:10:47.197Z,2.40
2018-07-15T22:13:16.030Z,2.23
2018-07-15T22:15:44.866Z,2.43
2018-07-15T22:18:13.841Z,2.10
2018-07-15T22:20:42.727Z,2.37
2018-07-15T22:23:11.588Z,2.30
2018-07-15T22:25:40.422Z,2.30
2018-07-15T22:28:09.275Z,2.50
2018-07-15T22:30:38.158Z,2.23
2018-07-15T22:33:06.990Z,2.20
2018-07-15T22:35:35.843Z,2.27
2018-07-15T22:38:04.695Z,2.30
2018-07-15T22:40:33.527Z,2.70
2018-07-15T22:43:02.326Z,2.43
2018-07-15T22:45:31.195Z,2.40
2018-07-15T22:48:00.044Z,2.20
2018-07-15T22:50:28.889Z,2.23
2018-07-15T22:52:57.724Z,2.20
2018-07-15T22:55:26.564Z,1.97
2018-07-15T22:57:55.415Z,2.30
2018-07-15T23:00:24.248Z,2.58
2018-07-15T23:02:53.086Z,2.17
2018-07-15T23:05:49.953Z,2.43
2018-07-15T23:08:18.779Z,2.40
2018-07-15T23:10:47.771Z,2.37
2018-07-15T23:13:17.112Z,2.30
2018-07-15T23:15:46.227Z,2.40
2018-07-15T23:18:15.078Z,2.70
2018-07-15T23:20:44.700Z,2.63
2018-07-15T23:23:14.020Z,2.50
2018-07-15T23:25:42.956Z,2.50
2018-07-15T23:28:12.826Z,2.43
2018-07-15T23:30:42.305Z,2.50
2018-07-15T23:33:11.620Z,2.60
2018-07-15T23:35:40.439Z,2.43
2018-07-15T23:38:09.286Z,2.20
2018-07-15T23:40:38.114Z,2.03
2018-07-15T23:43:06.949Z,2.20
2018-07-15T23:45:36.469Z,2.30
2018-07-15T23:48:05.318Z,2.27
2018-07-15T23:50:34.164Z,2.30
2018-07-15T23:53:02.985Z,2.55
2018-07-15T23:55:31.841Z,2.13
2018-07-15T23:58:00.680Z,2.50
